createdAt,value
2024-02-19T00:00:59.377Z,101523.27
2024-02-19T00:06:04.800Z,101513.52
2024-02-19T00:11:08.735Z,101500.54
2024-02-19T00:16:10.357Z,101487.02
2024-02-19T00:21:12.118Z,101482.11
2024-02-19T00:26:14.960Z,101476.59
2024-02-19T00:31:17.467Z,101472.39
2024-02-19T00:36:21.186Z,101470.13
2024-02-19T00:41:23.360Z,101458.02
2024-02-19T00:46:25.235Z,101446.15
2024-02-19T00:51:26.875Z,101437.38
2024-02-19T00:56:28.834Z,101425.38
2024-02-19T01:01:31.953Z,101420.49
2024-02-19T01:06:33.648Z,101410.71
2024-02-19T01:11:36.056Z,101401.35
2024-02-19T01:16:37.916Z,101391.45
2024-02-19T01:21:39.818Z,101380.20
2024-02-19T01:26:41.360Z,101377.89
2024-02-19T01:31:42.898Z,101368.89
2024-02-19T01:36:45.402Z,101361.92
2024-02-19T01:41:46.999Z,101348.23
2024-02-19T01:46:50.250Z,101333.30
2024-02-19T01:51:53.030Z,101326.73
2024-02-19T01:56:55.136Z,101320.70
2024-02-19T02:01:57.080Z,101316.61
2024-02-19T02:06:58.988Z,101297.02
2024-02-19T02:12:00.667Z,101276.21
2024-02-19T02:17:02.310Z,101263.95
2024-02-19T02:22:03.999Z,101260.66
2024-02-19T02:27:05.885Z,101256.08
2024-02-19T02:32:07.791Z,101238.34
2024-02-19T02:37:09.418Z,101231.44
2024-02-19T02:42:11.109Z,101220.06
2024-02-19T02:47:12.661Z,101225.54
2024-02-19T02:52:14.314Z,101226.89
2024-02-19T02:57:15.892Z,101217.48
2024-02-19T03:02:17.421Z,101197.66
2024-02-19T03:07:19.116Z,101184.41
2024-02-19T03:12:20.772Z,101182.34
2024-02-19T03:17:24.112Z,101169.14
2024-02-19T03:22:27.129Z,101165.63
2024-02-19T03:27:28.748Z,101155.38
2024-02-19T03:32:30.312Z,101148.73
2024-02-19T03:37:32.204Z,101145.30
2024-02-19T03:42:34.589Z,101139.45
2024-02-19T03:47:36.313Z,101138.31
2024-02-19T03:52:39.058Z,101132.59
2024-02-19T03:57:40.693Z,101128.92
2024-02-19T04:02:42.462Z,101129.95
2024-02-19T04:07:44.076Z,101122.84
2024-02-19T04:12:45.721Z,101114.90
2024-02-19T04:17:49.040Z,101108.11
2024-02-19T04:22:50.835Z,101111.04
2024-02-19T04:27:53.448Z,101106.79
2024-02-19T04:32:55.169Z,101091.31
2024-02-19T04:37:56.965Z,101067.17
2024-02-19T04:42:58.652Z,101054.77
2024-02-19T04:48:00.381Z,101045.61
2024-02-19T04:53:02.050Z,101040.17
2024-02-19T04:58:03.762Z,101034.91
2024-02-19T05:03:05.653Z,101032.14
2024-02-19T05:08:07.727Z,101018.44
2024-02-19T05:13:09.343Z,101019.79
2024-02-19T05:18:11.121Z,101012.38
2024-02-19T05:23:12.728Z,101002.66
2024-02-19T05:28:14.399Z,100999.42
2024-02-19T05:33:19.729Z,100998.83
2024-02-19T05:38:22.058Z,100992.21
2024-02-19T05:43:23.709Z,100983.36
2024-02-19T05:48:25.847Z,100966.84
2024-02-19T05:53:27.691Z,100950.52
2024-02-19T05:58:29.393Z,100940.47
2024-02-19T06:03:33.429Z,100930.38
2024-02-19T06:08:35.036Z,100934.05
2024-02-19T06:13:36.659Z,100925.36
2024-02-19T06:18:38.537Z,100918.66
2024-02-19T06:23:40.761Z,100929.20
2024-02-19T06:28:42.418Z,100929.83
2024-02-19T06:33:44.693Z,100928.91
2024-02-19T06:38:46.512Z,100927.09
2024-02-19T06:43:48.066Z,100910.58
2024-02-19T06:48:52.262Z,100906.30
2024-02-19T06:53:54.268Z,100905.98
2024-02-19T06:58:55.879Z,100904.42
2024-02-19T07:03:57.781Z,100894.65
2024-02-19T07:08:59.476Z,100885.25
2024-02-19T07:14:01.026Z,100882.49
2024-02-19T07:19:02.865Z,100880.70
2024-02-19T07:24:04.891Z,100869.92
2024-02-19T07:29:06.608Z,100865.96
2024-02-19T07:34:09.179Z,100858.18
2024-02-19T07:39:12.006Z,100859.13
2024-02-19T07:44:14.025Z,100849.56
2024-02-19T07:49:15.850Z,100846.04
2024-02-19T07:54:17.668Z,100840.23
2024-02-19T07:59:21.037Z,100830.13
2024-02-19T08:04:28.294Z,100822.59
2024-02-19T08:09:30.060Z,100813.49
2024-02-19T08:14:31.724Z,100809.83
2024-02-19T08:19:34.635Z,100806.77
2024-02-19T08:24:39.206Z,100798.13
2024-02-19T08:29:40.797Z,100793.05
2024-02-19T08:34:42.983Z,100787.48
2024-02-19T08:39:45.769Z,100782.34
2024-02-19T08:44:47.459Z,100781.89
2024-02-19T08:49:49.310Z,100782.41
2024-02-19T08:54:51.199Z,100782.92
2024-02-19T08:59:53.459Z,100776.99
2024-02-19T09:04:55.381Z,100769.60
2024-02-19T09:09:57.162Z,100777.17
2024-02-19T09:14:59.702Z,100774.73
2024-02-19T09:20:02.100Z,100769.40
2024-02-19T09:25:05.172Z,100767.98
2024-02-19T09:30:09.134Z,100759.21
2024-02-19T09:35:11.026Z,100752.74
2024-02-19T09:40:14.020Z,100742.46
2024-02-19T09:45:20.686Z,100739.30
2024-02-19T09:50:24.287Z,100729.95
2024-02-19T09:55:26.551Z,100727.52
2024-02-19T10:00:31.012Z,100725.05
2024-02-19T10:05:35.408Z,100718.60
2024-02-19T10:10:39.504Z,100714.34
2024-02-19T10:15:41.128Z,100711.36
2024-02-19T10:20:52.298Z,100702.79
2024-02-19T10:25:55.515Z,100698.34
2024-02-19T10:30:59.796Z,100694.11
2024-02-19T10:36:03.974Z,100685.70
2024-02-19T10:41:06.048Z,100678.41
2024-02-19T10:46:07.697Z,100669.00
2024-02-19T10:51:09.333Z,100667.89
2024-02-19T10:56:19.034Z,100657.73
2024-02-19T11:01:23.544Z,100649.68
2024-02-19T11:06:25.363Z,100640.43
2024-02-19T11:11:27.239Z,100633.49
2024-02-19T11:16:29.729Z,100633.73
2024-02-19T11:21:31.623Z,100626.17
2024-02-19T11:26:33.260Z,100616.82
2024-02-19T11:31:35.074Z,100597.52
2024-02-19T11:36:36.646Z,100596.37
2024-02-19T11:41:38.908Z,100596.73
2024-02-19T11:46:44.933Z,100584.45
2024-02-19T11:51:54.435Z,100574.73
2024-02-19T11:57:04.837Z,100567.20
2024-02-19T12:02:07.802Z,100559.25
2024-02-19T12:12:27.933Z,100540.91
2024-02-19T12:17:31.896Z,100533.34
2024-02-19T12:22:35.452Z,100530.05
2024-02-19T12:27:37.411Z,100525.08
2024-02-19T12:32:40.398Z,100520.95
2024-02-19T12:37:42.199Z,100508.89
2024-02-19T12:42:43.905Z,100499.33
2024-02-19T12:47:45.741Z,100498.80
2024-02-19T12:52:47.962Z,100486.59
2024-02-19T12:57:49.742Z,100484.40
2024-02-19T13:02:51.551Z,100479.78
2024-02-19T13:07:53.337Z,100473.45
2024-02-19T13:12:55.952Z,100464.48
2024-02-19T13:17:58.096Z,100461.04
2024-02-19T13:22:59.677Z,100454.91
2024-02-19T13:28:01.234Z,100447.48
2024-02-19T13:33:07.679Z,100444.95
2024-02-19T13:38:46.162Z,100440.56
2024-02-19T13:43:47.883Z,100426.50
2024-02-19T13:49:00.045Z,100423.83
2024-02-19T13:54:01.755Z,100416.04
2024-02-19T13:59:06.882Z,100408.02
2024-02-19T14:04:08.780Z,100404.98
2024-02-19T14:09:12.748Z,100406.33
2024-02-19T14:14:14.436Z,100402.77
2024-02-19T14:19:16.219Z,100400.43
2024-02-19T14:24:19.316Z,100396.36
2024-02-19T14:29:21.066Z,100387.71
2024-02-19T14:34:24.645Z,100385.52
2024-02-19T14:39:28.317Z,100382.48
2024-02-19T14:44:29.985Z,100380.59
2024-02-19T14:49:32.145Z,100377.04
2024-02-19T14:54:34.668Z,100368.21
2024-02-19T14:59:41.300Z,100366.02
2024-02-19T15:04:43.048Z,100361.11
2024-02-19T15:09:44.675Z,100356.53
2024-02-19T15:14:47.396Z,100352.28
2024-02-19T15:19:49.147Z,100347.19
2024-02-19T15:24:51.276Z,100342.95
2024-02-19T15:29:54.813Z,100331.41
2024-02-19T15:34:56.436Z,100336.36
2024-02-19T15:39:58.197Z,100330.27
2024-02-19T15:44:59.883Z,100333.17
2024-02-19T15:50:01.796Z,100331.83
2024-02-19T15:55:07.097Z,100325.38
2024-02-19T16:00:16.809Z,100324.35
2024-02-19T16:05:18.725Z,100322.17
2024-02-19T16:10:21.632Z,100322.87
2024-02-19T16:15:23.465Z,100318.98
2024-02-19T16:20:25.042Z,100305.89
2024-02-19T16:25:27.687Z,100308.13
2024-02-19T16:30:34.973Z,100306.61
2024-02-19T16:35:39.526Z,100303.55
2024-02-19T16:40:41.307Z,100302.55
2024-02-19T16:45:43.915Z,100307.52
2024-02-19T16:50:45.558Z,100307.52
2024-02-19T16:55:48.705Z,100309.59
2024-02-19T17:00:55.169Z,100307.91
2024-02-19T17:05:57.386Z,100308.94
2024-02-19T17:10:59.331Z,100320.88
2024-02-19T17:16:02.022Z,100311.53
2024-02-19T17:21:05.127Z,100301.52
2024-02-19T17:26:08.057Z,100301.68
2024-02-19T17:31:10.029Z,100303.91
2024-02-19T17:36:11.771Z,100307.16
2024-02-19T17:41:13.409Z,100306.14
2024-02-19T17:46:18.944Z,100312.63
2024-02-19T17:51:22.336Z,100305.30
2024-02-19T17:56:26.976Z,100306.84
2024-02-19T18:01:28.592Z,100303.26
2024-02-19T18:06:31.532Z,100302.23
2024-02-19T18:11:35.189Z,100299.68
2024-02-19T18:16:40.006Z,100296.27
2024-02-19T18:21:47.801Z,100290.63
2024-02-19T18:26:50.021Z,100287.55
2024-02-19T18:31:56.683Z,100291.80
2024-02-19T18:37:00.344Z,100291.09
2024-02-19T18:42:04.093Z,100296.54
2024-02-19T18:47:06.548Z,100293.63
2024-02-19T18:52:08.600Z,100300.94
2024-02-19T18:57:10.345Z,100302.79
2024-02-19T19:02:12.247Z,100305.52
2024-02-19T19:07:18.515Z,100306.19
2024-02-19T19:12:21.851Z,100306.20
2024-02-19T19:17:24.267Z,100306.86
2024-02-19T19:22:25.978Z,100311.98
2024-02-19T19:27:29.253Z,100319.13
2024-02-19T19:32:33.500Z,100322.35
2024-02-19T19:37:35.235Z,100325.27
2024-02-19T19:42:37.257Z,100330.02
2024-02-19T19:47:39.168Z,100328.33
2024-02-19T19:52:41.347Z,100332.60
2024-02-19T19:57:50.489Z,100331.90
2024-02-19T20:02:52.214Z,100338.91
2024-02-19T20:07:53.859Z,100341.98
2024-02-19T20:12:55.552Z,100353.06
2024-02-19T20:17:57.343Z,100364.52
2024-02-19T20:22:59.789Z,100366.40
2024-02-19T20:28:02.308Z,100367.96
2024-02-19T20:33:04.649Z,100371.89
2024-02-19T20:38:06.399Z,100378.54
2024-02-19T20:43:08.226Z,100386.04
2024-02-19T20:48:09.971Z,100386.91
2024-02-19T20:53:14.698Z,100392.70
2024-02-19T20:58:17.588Z,100396.63
2024-02-19T21:03:22.531Z,100397.81
2024-02-19T21:08:26.224Z,100405.14
2024-02-19T21:13:27.884Z,100403.45
2024-02-19T21:18:34.706Z,100407.36
2024-02-19T21:23:45.964Z,100410.24
2024-02-19T21:28:47.500Z,100415.73
2024-02-19T21:33:49.222Z,100417.59
2024-02-19T21:38:51.351Z,100421.17
2024-02-19T21:43:52.962Z,100423.05
2024-02-19T21:48:56.400Z,100419.30
2024-02-19T21:53:58.181Z,100422.36
2024-02-19T21:58:59.791Z,100424.59
2024-02-19T22:04:02.448Z,100424.25
2024-02-19T22:09:04.299Z,100423.55
2024-02-19T22:14:06.140Z,100431.04
2024-02-19T22:19:07.784Z,100434.80
2024-02-19T22:24:09.683Z,100434.63
2024-02-19T22:29:11.291Z,100439.92
2024-02-19T22:34:12.998Z,100439.41
2024-02-19T22:39:15.665Z,100445.72
2024-02-19T22:44:17.382Z,100443.83
2024-02-19T22:49:19.076Z,100448.96
2024-02-19T22:54:20.786Z,100447.08
2024-02-19T22:59:24.025Z,100449.64
2024-02-19T23:04:25.672Z,100448.10
2024-02-19T23:09:27.241Z,100451.16
2024-02-19T23:14:28.809Z,100453.21
2024-02-19T23:19:30.675Z,100456.61
2024-02-19T23:24:32.366Z,100458.33
2024-02-19T23:29:34.660Z,100456.96
2024-02-19T23:34:36.629Z,100458.48
2024-02-19T23:39:39.784Z,100460.02
2024-02-19T23:44:42.642Z,100460.21
2024-02-19T23:49:44.384Z,100460.71
2024-02-19T23:54:46.005Z,100462.42
2024-02-19T23:59:47.530Z,100461.57
